Time;durP1;ratioP1;P1;durP2;ratioP2;P2;SDS_P1;SDS_P2;PMS_P1;PMS_P2;Temp;Humidity;BMP_temperature;BMP_pressure;BME280_temperature;BME280_humidity;BME280_pressure;Samples;Min_cycle;Max_cycle;Signal;HPM_P1;HPM_P2
2023/10/30 00:00:08;;;;;;;;;1.75;1.75;;;;;17.57;77.74;99287.75;6214321;22;45313;-77
2023/10/30 00:02:35;;;;;;;;;5.50;2.25;;;;;17.56;78.23;99278.81;6215453;22;45228;-77
2023/10/30 00:05:01;;;;;;;;;3.50;2.00;;;;;17.48;78.26;99278.22;6215922;22;44741;-77
2023/10/30 00:07:27;;;;;;;;;2.00;1.00;;;;;17.47;78.07;99270.22;6213510;22;45325;-77
2023/10/30 00:09:53;;;;;;;;;1.00;1.00;;;;;17.46;78.10;99274.72;6210455;22;45419;-77
2023/10/30 00:12:18;;;;;;;;;1.00;1.00;;;;;17.44;78.36;99270.34;6212330;22;45354;-77
2023/10/30 00:14:44;;;;;;;;;1.00;1.00;;;;;17.44;78.36;99287.34;6210945;22;45367;-77
2023/10/30 00:17:09;;;;;;;;;1.25;0.75;;;;;17.42;78.21;99291.91;6210860;22;45387;-78
2023/10/30 00:19:34;;;;;;;;;3.00;2.00;;;;;17.42;78.60;99289.22;6210540;22;45321;-78
2023/10/30 00:22:00;;;;;;;;;3.00;1.25;;;;;17.39;78.41;99286.63;6210454;22;48137;-77
2023/10/30 00:24:27;;;;;;;;;1.75;1.00;;;;;17.45;78.49;99290.91;6212266;22;44779;-78
2023/10/30 00:26:52;;;;;;;;;2.00;2.00;;;;;17.37;78.88;99293.88;6211918;22;45356;-78
2023/10/30 00:29:18;;;;;;;;;1.75;1.75;;;;;17.38;78.74;99291.13;6212648;22;45349;-78
2023/10/30 00:31:44;;;;;;;;;1.25;1.25;;;;;17.52;78.35;99281.69;6211145;22;47099;-78
2023/10/30 00:34:12;;;;;;;;;1.00;1.00;;;;;17.43;78.62;99276.63;6213282;22;45435;-77
2023/10/30 00:36:37;;;;;;;;;3.50;2.00;;;;;17.43;78.55;99274.84;6213665;22;45402;-78
2023/10/30 00:39:03;;;;;;;;;1.00;1.00;;;;;17.34;78.45;99270.69;6214598;22;45404;-77
2023/10/30 00:41:28;;;;;;;;;4.00;3.00;;;;;17.27;78.91;99263.78;6214192;22;46152;-78
2023/10/30 00:43:53;;;;;;;;;2.00;2.00;;;;;17.20;79.04;99264.94;6210214;22;45813;-78
2023/10/30 00:46:21;;;;;;;;;2.33;2.33;;;;;17.13;79.00;99258.06;6211126;22;45418;-77
2023/10/30 00:48:53;;;;;;;;;2.00;2.00;;;;;17.10;79.24;99259.03;6212280;22;45362;-77
2023/10/30 00:51:19;;;;;;;;;1.75;1.75;;;;;17.05;79.20;99260.13;6214090;22;46262;-77
2023/10/30 00:53:46;;;;;;;;;4.50;1.50;;;;;17.16;79.38;99256.09;6213442;22;44757;-77
2023/10/30 00:56:11;;;;;;;;;1.75;1.25;;;;;16.99;79.34;99269.28;6214519;22;45346;-77
2023/10/30 00:58:36;;;;;;;;;2.75;1.00;;;;;16.97;79.41;99269.34;6213074;22;45296;-77
2023/10/30 01:01:02;;;;;;;;;1.50;1.50;;;;;16.95;79.95;99268.53;6212760;22;45336;-77
2023/10/30 01:03:27;;;;;;;;;2.00;2.00;;;;;16.90;79.71;99273.16;6212841;22;45765;-77
2023/10/30 01:06:00;;;;;;;;;1.00;1.00;;;;;17.09;79.62;99273.41;6212081;22;45277;-77
2023/10/30 01:08:26;;;;;;;;;1.00;1.00;;;;;16.85;80.12;99275.16;6215274;22;45452;-78
2023/10/30 01:10:52;;;;;;;;;1.75;1.75;;;;;16.74;80.44;99271.91;6212692;22;47246;-77
2023/10/30 01:13:18;;;;;;;;;4.25;1.50;;;;;16.65;80.69;99280.31;6213226;22;45342;-77
2023/10/30 01:15:43;;;;;;;;;1.00;1.00;;;;;16.57;81.00;99268.00;6213196;22;45296;-77
2023/10/30 01:18:08;;;;;;;;;2.00;2.00;;;;;16.50;81.31;99263.81;6214246;22;45331;-77
2023/10/30 01:20:38;;;;;;;;;4.25;2.00;;;;;16.60;81.79;99261.66;6211569;22;47269;-77
2023/10/30 01:23:03;;;;;;;;;3.00;1.00;;;;;16.39;81.74;99249.84;6212784;22;45333;-77
2023/10/30 01:25:29;;;;;;;;;1.75;1.75;;;;;16.33;82.12;99256.28;6213888;22;45417;-78
2023/10/30 01:27:54;;;;;;;;;1.50;0.00;;;;;16.26;82.67;99248.50;6214347;22;45458;-77
2023/10/30 01:30:21;;;;;;;;;2.00;2.00;;;;;16.35;82.77;99250.88;6214274;22;45358;-78
2023/10/30 01:32:46;;;;;;;;;2.50;1.75;;;;;16.18;82.53;99255.00;6214438;22;45347;-77
2023/10/30 01:35:11;;;;;;;;;2.00;2.00;;;;;16.16;82.77;99248.81;6215150;22;45265;-77
2023/10/30 01:37:37;;;;;;;;;3.00;2.25;;;;;16.10;83.45;99240.09;6213791;22;45408;-77
2023/10/30 01:40:03;;;;;;;;;1.75;1.75;;;;;16.09;83.26;99243.69;6211566;22;47143;-77
2023/10/30 01:42:28;;;;;;;;;4.00;1.00;;;;;16.06;83.22;99242.00;6214428;22;45267;-77
2023/10/30 01:44:55;;;;;;;;;2.50;2.00;;;;;16.09;83.83;99239.19;6244123;22;45451;-77
2023/10/30 01:47:21;;;;;;;;;3.00;2.00;;;;;15.99;83.31;99243.09;6244724;22;45360;-77
2023/10/30 01:49:46;;;;;;;;;2.00;2.00;;;;;15.97;83.83;99237.78;6244570;22;45434;-76
2023/10/30 01:52:13;;;;;;;;;1.00;1.00;;;;;15.96;84.28;99240.53;6215961;22;45376;-76
2023/10/30 01:54:39;;;;;;;;;1.00;1.00;;;;;15.91;84.96;99242.47;6215626;22;45437;-77
2023/10/30 01:57:05;;;;;;;;;3.00;1.75;;;;;15.85;84.80;99234.63;6217017;22;45415;-77
2023/10/30 01:59:31;;;;;;;;;3.00;1.00;;;;;15.85;86.14;99240.00;6216598;22;46792;-76
2023/10/30 02:01:56;;;;;;;;;0.00;0.00;;;;;15.77;85.72;99235.78;6244950;22;45299;-76
2023/10/30 02:04:23;;;;;;;;;4.67;3.67;;;;;15.80;86.85;99235.66;6214654;22;45412;-75
2023/10/30 02:06:49;;;;;;;;;2.25;2.25;;;;;15.72;86.40;99229.66;6242676;22;45288;-76
2023/10/30 02:09:17;;;;;;;;;1.00;1.00;;;;;15.68;87.53;99225.28;6215755;22;47062;-75
2023/10/30 02:11:42;;;;;;;;;2.00;1.00;;;;;15.63;88.05;99226.34;6242989;22;45435;-75
2023/10/30 02:14:07;;;;;;;;;1.25;1.25;;;;;15.60;87.69;99224.66;6215713;22;45339;-75
2023/10/30 02:16:33;;;;;;;;;3.00;3.00;;;;;15.56;88.01;99220.31;6243604;22;45391;-75
2023/10/30 02:18:58;;;;;;;;;3.50;0.75;;;;;15.56;88.28;99223.00;6242904;22;45351;-75
2023/10/30 02:21:24;;;;;;;;;5.00;2.00;;;;;15.54;88.10;99230.19;6214508;22;45401;-76
2023/10/30 02:23:49;;;;;;;;;3.00;3.00;;;;;15.48;88.23;99231.25;6242692;22;45412;-75
2023/10/30 02:26:15;;;;;;;;;1.00;0.00;;;;;15.49;89.04;99224.09;6242459;22;45365;-76
2023/10/30 02:28:40;;;;;;;;;4.67;2.33;;;;;15.46;89.28;99224.19;6242551;22;45292;-76
2023/10/30 02:31:06;;;;;;;;;2.25;1.00;;;;;15.42;89.61;99226.09;6242035;22;45356;-76
2023/10/30 02:33:31;;;;;;;;;1.00;0.25;;;;;15.34;90.38;99223.63;6214815;22;45445;-76
2023/10/30 02:35:57;;;;;;;;;0.00;0.00;;;;;15.35;89.78;99225.41;6244150;22;45244;-76
2023/10/30 02:38:22;;;;;;;;;2.00;2.00;;;;;15.40;90.21;99225.25;6244102;22;45296;-76
2023/10/30 02:40:47;;;;;;;;;4.33;2.00;;;;;15.37;90.47;99219.97;6215960;22;45723;-76
2023/10/30 02:43:13;;;;;;;;;0.00;0.00;;;;;15.31;90.29;99212.13;6240505;22;45210;-76
2023/10/30 02:45:38;;;;;;;;;0.50;0.50;;;;;15.38;89.92;99214.56;6242959;22;45412;-76
2023/10/30 02:48:04;;;;;;;;;1.33;1.33;;;;;15.38;89.57;99209.22;6215455;22;46652;-76
2023/10/30 02:50:30;;;;;;;;;2.67;1.00;;;;;15.34;89.48;99209.38;6244108;22;45306;-76
2023/10/30 02:52:56;;;;;;;;;1.33;1.33;;;;;15.32;90.40;99206.72;6216505;22;45453;-76
2023/10/30 02:55:21;;;;;;;;;2.75;2.75;;;;;15.33;90.71;99197.78;6245880;22;45396;-76
2023/10/30 02:57:46;;;;;;;;;1.50;1.50;;;;;15.35;91.69;99195.94;6216026;22;46456;-76
2023/10/30 03:00:12;;;;;;;;;0.00;0.00;;;;;15.36;90.35;99203.03;6216964;22;45418;-76
2023/10/30 03:02:37;;;;;;;;;1.00;0.50;;;;;15.35;89.86;99190.56;6217492;22;45373;-75
2023/10/30 03:05:03;;;;;;;;;1.00;0.00;;;;;15.42;90.47;99198.41;6243237;22;45407;-75
2023/10/30 03:07:28;;;;;;;;;1.50;1.00;;;;;15.35;90.80;99190.56;6190645;22;46962;-75
2023/10/30 03:09:53;;;;;;;;;1.50;1.50;;;;;15.33;90.31;99181.72;6242690;22;45396;-76
2023/10/30 03:12:19;;;;;;;;;2.67;1.00;;;;;15.32;91.71;99165.69;6244229;22;45391;-76
2023/10/30 03:14:44;;;;;;;;;3.00;3.00;;;;;15.24;92.55;99167.72;6216873;22;45435;-76
2023/10/30 03:17:09;;;;;;;;;3.00;2.25;;;;;15.18;92.87;99160.72;6216284;22;46655;-76
2023/10/30 03:19:36;;;;;;;;;3.50;3.00;;;;;15.28;92.96;99162.22;6243306;22;45379;-76
2023/10/30 03:22:01;;;;;;;;;2.33;2.33;;;;;15.11;94.20;99159.19;6216406;22;45297;-76
2023/10/30 03:24:27;;;;;;;;;2.00;1.00;;;;;15.06;94.08;99148.59;6215628;22;44788;-76
2023/10/30 03:26:52;;;;;;;;;2.00;2.00;;;;;15.05;94.33;99148.63;6215234;22;47009;-76
2023/10/30 03:29:17;;;;;;;;;2.33;2.00;;;;;15.00;95.03;99152.31;6215681;22;45851;-76
2023/10/30 03:31:43;;;;;;;;;1.00;1.00;;;;;15.03;95.47;99139.75;6243844;22;45336;-76
2023/10/30 03:34:09;;;;;;;;;1.00;1.00;;;;;14.93;95.47;99137.38;6243424;22;45195;-75
2023/10/30 03:36:34;;;;;;;;;2.00;2.00;;;;;14.99;95.35;99144.34;6242601;22;45650;-75
2023/10/30 03:39:00;;;;;;;;;1.00;1.00;;;;;15.04;96.23;99142.41;6243412;22;45249;-76
2023/10/30 03:41:26;;;;;;;;;2.00;2.00;;;;;14.98;95.17;99137.22;6215980;22;45498;-76
2023/10/30 03:43:51;;;;;;;;;3.33;2.00;;;;;14.96;95.89;99139.06;6210291;22;44838;-75
2023/10/30 03:46:16;;;;;;;;;2.00;2.00;;;;;15.00;96.00;99151.44;6210254;22;45785;-76
2023/10/30 03:48:42;;;;;;;;;3.00;3.00;;;;;14.99;96.40;99150.56;6210582;22;45372;-76
2023/10/30 03:51:07;;;;;;;;;2.50;2.50;;;;;15.02;96.34;99162.13;6211028;22;45396;-76
2023/10/30 03:53:32;;;;;;;;;1.00;1.00;;;;;15.03;96.43;99150.47;6213551;22;45450;-76
2023/10/30 03:55:58;;;;;;;;;3.67;3.67;;;;;15.04;96.65;99150.44;6212510;22;45382;-76
2023/10/30 03:58:25;;;;;;;;;2.00;2.00;;;;;15.10;96.81;99152.06;6212676;22;45379;-76
2023/10/30 04:00:50;;;;;;;;;1.00;1.00;;;;;15.05;96.22;99143.28;6211098;22;45377;-76
2023/10/30 04:03:17;;;;;;;;;1.33;1.33;;;;;15.09;97.33;99140.47;6212820;22;45482;-75
2023/10/30 04:05:43;;;;;;;;;1.50;1.50;;;;;14.96;97.21;99150.66;6211175;22;47355;-75
2023/10/30 04:08:08;;;;;;;;;3.67;3.00;;;;;14.98;97.65;99137.22;6213234;22;45335;-75
2023/10/30 04:10:33;;;;;;;;;2.75;2.00;;;;;15.02;97.22;99146.94;6212699;22;45307;-75
2023/10/30 04:12:59;;;;;;;;;3.00;1.67;;;;;15.00;97.55;99140.75;6211199;22;45441;-75
2023/10/30 04:15:24;;;;;;;;;1.75;1.50;;;;;15.00;97.31;99130.91;6211261;22;46185;-75
2023/10/30 04:17:50;;;;;;;;;3.00;3.00;;;;;14.99;97.21;99134.50;6211640;22;45704;-75
2023/10/30 04:20:15;;;;;;;;;1.00;1.00;;;;;15.02;97.33;99138.03;6213816;22;45343;-76
2023/10/30 04:22:41;;;;;;;;;4.33;3.00;;;;;15.03;97.22;99132.63;6211599;22;45313;-76
2023/10/30 04:25:08;;;;;;;;;2.00;2.00;;;;;15.14;97.19;99132.28;6213638;22;45417;-76
2023/10/30 04:27:33;;;;;;;;;3.00;2.00;;;;;15.00;96.89;99130.91;6212689;22;44750;-76
2023/10/30 04:29:59;;;;;;;;;3.00;3.00;;;;;15.07;96.60;99136.06;6213586;22;45387;-76
2023/10/30 04:32:24;;;;;;;;;3.00;1.33;;;;;15.14;96.06;99148.38;6210105;22;45338;-76
2023/10/30 04:34:56;;;;;;;;;3.67;2.00;;;;;15.18;95.71;99163.41;6212723;22;46079;-76
2023/10/30 04:37:25;;;;;;;;;1.25;1.00;;;;;15.38;95.83;99157.44;6211254;22;45463;-76
2023/10/30 04:39:50;;;;;;;;;2.00;1.75;;;;;15.18;95.51;99158.06;6211225;22;45340;-76
2023/10/30 04:42:16;;;;;;;;;4.67;3.00;;;;;15.22;95.55;99151.69;6210561;22;45486;-75
2023/10/30 04:44:41;;;;;;;;;2.00;2.00;;;;;15.23;95.39;99153.47;6209564;22;46955;-74
2023/10/30 04:47:14;;;;;;;;;3.67;3.00;;;;;15.47;95.38;99164.31;6212109;22;45301;-75
2023/10/30 04:49:40;;;;;;;;;1.00;1.00;;;;;15.25;95.10;99166.78;6210610;22;45803;-75
2023/10/30 04:52:05;;;;;;;;;2.00;1.00;;;;;15.23;98.82;99157.91;6211342;22;45506;-75
2023/10/30 04:54:31;;;;;;;;;2.00;0.67;;;;;15.28;99.70;99146.13;6211613;22;45957;-76
2023/10/30 04:56:56;;;;;;;;;2.00;2.00;;;;;15.34;99.70;99134.38;6209495;22;45374;-77
2023/10/30 04:59:22;;;;;;;;;2.00;2.00;;;;;15.39;97.94;99130.63;6212245;22;45311;-76
2023/10/30 05:01:47;;;;;;;;;1.50;1.50;;;;;15.45;96.85;99125.97;6210195;22;45393;-76
2023/10/30 05:04:15;;;;;;;;;3.00;2.00;;;;;15.47;96.55;99121.44;6210434;22;48252;-76
2023/10/30 05:06:40;;;;;;;;;4.00;2.00;;;;;15.49;96.50;99120.50;6211300;22;45520;-76
2023/10/30 05:09:06;;;;;;;;;5.00;3.00;;;;;15.53;95.74;99099.81;6210632;22;45826;-76
2023/10/30 05:11:32;;;;;;;;;2.75;2.00;;;;;15.58;95.20;99101.44;6209829;22;45502;-75
2023/10/30 05:13:57;;;;;;;;;2.00;2.00;;;;;15.65;94.31;99106.59;6212466;22;45197;-76
2023/10/30 05:16:22;;;;;;;;;3.33;2.00;;;;;15.71;93.69;99104.56;6211022;22;45388;-76
2023/10/30 05:18:48;;;;;;;;;4.00;4.00;;;;;15.69;93.27;99101.06;6212487;22;45414;-75
2023/10/30 05:21:13;;;;;;;;;2.67;2.67;;;;;15.66;93.05;99087.78;6212700;22;45335;-76
2023/10/30 05:23:38;;;;;;;;;5.33;3.00;;;;;15.72;92.87;99086.72;6213139;22;45935;-76
2023/10/30 05:26:04;;;;;;;;;2.33;2.33;;;;;15.75;92.79;99092.88;6212866;22;45337;-76
2023/10/30 05:28:29;;;;;;;;;2.00;2.00;;;;;15.76;92.53;99083.03;6210317;22;45467;-77
2023/10/30 05:30:56;;;;;;;;;2.50;2.50;;;;;15.82;92.38;99080.13;6210896;22;45467;-77
2023/10/30 05:33:21;;;;;;;;;2.25;2.25;;;;;15.76;92.09;99072.31;6212164;22;46848;-77
2023/10/30 05:35:54;;;;;;;;;2.75;2.75;;;;;16.05;91.86;99083.81;6212454;22;45308;-76
2023/10/30 05:38:19;;;;;;;;;0.25;0.25;;;;;15.78;94.61;99086.53;6213223;22;45686;-76
2023/10/30 05:40:46;;;;;;;;;3.00;2.00;;;;;15.78;95.03;99087.41;6212532;22;44753;-76
2023/10/30 05:43:12;;;;;;;;;3.00;3.00;;;;;15.74;98.76;99084.88;6216351;22;45284;-76
2023/10/30 05:45:38;;;;;;;;;3.33;3.33;;;;;15.75;97.93;99092.88;6242490;22;45306;-76
2023/10/30 05:48:04;;;;;;;;;3.67;3.67;;;;;15.77;97.96;99106.22;6243366;22;45279;-75
2023/10/30 05:50:30;;;;;;;;;4.00;4.00;;;;;15.76;97.61;99112.50;6215732;22;45412;-75
2023/10/30 05:52:55;;;;;;;;;1.00;1.00;;;;;15.78;94.96;99107.97;6240809;22;47115;-77
2023/10/30 05:55:21;;;;;;;;;2.33;2.33;;;;;15.75;94.42;99106.28;6242026;22;45331;-75
2023/10/30 05:57:46;;;;;;;;;5.00;3.33;;;;;15.75;94.74;99100.91;6242062;22;45813;-76
2023/10/30 06:00:13;;;;;;;;;4.00;4.00;;;;;15.84;94.75;99085.44;6215082;22;45665;-75
2023/10/30 06:02:38;;;;;;;;;2.00;1.00;;;;;15.78;94.52;99086.53;6242885;22;45153;-75
2023/10/30 06:05:06;;;;;;;;;4.33;4.33;;;;;15.79;94.23;99088.28;6241731;22;45407;-76
2023/10/30 06:07:34;;;;;;;;;3.00;3.00;;;;;15.64;95.41;99096.81;6214472;22;45431;-75
2023/10/30 06:09:59;;;;;;;;;5.00;5.00;;;;;15.55;95.55;99103.31;6243835;22;45247;-75
2023/10/30 06:12:24;;;;;;;;;4.00;4.00;;;;;15.62;95.30;99118.28;6216435;22;46671;-76
2023/10/30 06:14:50;;;;;;;;;2.67;2.67;;;;;15.68;95.13;99118.09;6216436;22;45632;-76
2023/10/30 06:17:15;;;;;;;;;3.67;3.00;;;;;15.96;93.95;99111.84;6243672;22;45344;-76
2023/10/30 06:19:41;;;;;;;;;4.00;2.00;;;;;15.84;94.59;99088.13;6216175;22;45406;-75
2023/10/30 06:22:06;;;;;;;;;4.50;3.00;;;;;15.82;95.13;99090.00;6216339;22;47522;-75
2023/10/30 06:24:32;;;;;;;;;4.25;3.25;;;;;15.71;95.38;99075.09;6215766;22;45373;-75
2023/10/30 06:26:58;;;;;;;;;2.00;2.00;;;;;15.84;95.41;99075.59;6216386;22;45857;-75
2023/10/30 06:29:23;;;;;;;;;3.00;3.00;;;;;15.69;95.82;99092.16;6215975;22;45407;-76
2023/10/30 06:31:48;;;;;;;;;2.25;2.00;;;;;15.66;95.74;99097.63;6243046;22;45358;-76
2023/10/30 06:34:14;;;;;;;;;3.67;3.00;;;;;15.71;96.14;99115.28;6242932;22;45469;-75
2023/10/30 06:36:39;;;;;;;;;4.00;3.00;;;;;15.74;96.16;99117.91;6244476;22;45711;-75
2023/10/30 06:39:05;;;;;;;;;3.25;3.00;;;;;15.83;95.67;99110.50;6244454;22;45439;-76
2023/10/30 06:41:30;;;;;;;;;3.00;3.00;;;;;15.82;95.65;99109.63;6215807;22;45755;-76
2023/10/30 06:43:56;;;;;;;;;5.00;4.00;;;;;15.82;96.42;99106.06;6209373;22;45346;-76
2023/10/30 06:46:21;;;;;;;;;3.67;3.00;;;;;15.79;96.98;99110.63;6210896;22;45293;-76
2023/10/30 06:48:47;;;;;;;;;7.00;4.00;;;;;15.77;97.71;99117.81;6210863;22;45359;-76
2023/10/30 06:51:12;;;;;;;;;4.67;3.67;;;;;15.71;98.10;99109.94;6213324;22;46026;-76
2023/10/30 06:53:38;;;;;;;;;2.75;2.75;;;;;15.68;98.77;99118.09;6211416;22;45345;-76
2023/10/30 06:56:03;;;;;;;;;1.00;1.00;;;;;15.68;99.45;99115.41;6211644;22;45265;-76
2023/10/30 06:58:29;;;;;;;;;1.50;1.50;;;;;15.59;99.19;99102.28;6213738;22;45307;-76
2023/10/30 07:01:04;;;;;;;;;3.33;3.33;;;;;15.86;99.32;99103.22;6212870;22;46962;-75
2023/10/30 07:06:51;;;;;;;;;2.67;2.67;;;;;15.62;98.90;99079.91;6213021;22;45418;-77
2023/10/30 07:09:18;;;;;;;;;3.00;3.00;;;;;15.67;98.56;99080.59;6210729;22;45325;-77
2023/10/30 07:11:43;;;;;;;;;4.33;4.33;;;;;15.72;98.87;99076.88;6211656;22;48101;-76
2023/10/30 07:14:09;;;;;;;;;4.00;3.00;;;;;15.76;98.30;99077.66;6213383;22;45265;-74
2023/10/30 07:16:35;;;;;;;;;4.00;3.67;;;;;16.00;96.50;99092.91;6211800;22;45821;-75
2023/10/30 07:19:03;;;;;;;;;2.00;2.00;;;;;16.18;96.22;99086.03;6214416;22;45423;-77
2023/10/30 07:21:29;;;;;;;;;4.67;3.00;;;;;16.14;96.08;99092.44;6212989;22;45431;-76
2023/10/30 07:23:55;;;;;;;;;3.67;3.00;;;;;16.02;96.56;99090.19;6213948;22;45359;-76
2023/10/30 07:26:24;;;;;;;;;5.00;5.00;;;;;16.04;96.42;99088.31;6212689;22;45380;-76
2023/10/30 07:28:50;;;;;;;;;4.00;3.00;;;;;16.08;96.28;99087.28;6212656;22;45221;-76
2023/10/30 07:31:18;;;;;;;;;6.33;4.00;;;;;16.13;96.46;99085.28;6212988;22;45369;-76
2023/10/30 07:33:43;;;;;;;;;4.00;4.00;;;;;16.11;96.34;99081.78;6213710;22;45375;-76
2023/10/30 07:36:08;;;;;;;;;3.00;3.00;;;;;16.17;96.13;99076.22;6214059;22;45568;-74
2023/10/30 07:38:35;;;;;;;;;1.25;1.25;;;;;16.17;95.63;99073.53;6213180;22;45421;-76
2023/10/30 07:41:02;;;;;;;;;9.00;4.75;;;;;16.31;95.51;99078.41;6211594;22;47619;-76
2023/10/30 07:43:27;;;;;;;;;3.00;3.00;;;;;16.15;95.51;99080.75;6218625;22;45411;-75
2023/10/30 07:45:53;;;;;;;;;5.00;3.00;;;;;16.15;95.37;99080.75;6217166;22;45385;-76
2023/10/30 07:48:18;;;;;;;;;3.33;3.33;;;;;16.19;95.65;99081.53;6217087;22;45436;-76
2023/10/30 07:50:44;;;;;;;;;4.00;3.00;;;;;16.22;95.40;99080.53;6217589;22;46861;-77
2023/10/30 07:53:09;;;;;;;;;4.00;4.00;;;;;16.25;95.11;99085.81;6216677;22;45575;-75
2023/10/30 07:55:38;;;;;;;;;5.00;4.00;;;;;16.27;94.69;99090.19;6244248;22;45278;-76
2023/10/30 07:58:05;;;;;;;;;4.67;4.00;;;;;16.26;95.29;99093.81;6246942;22;45388;-75
2023/10/30 08:00:31;;;;;;;;;4.50;4.50;;;;;16.27;95.29;99090.19;6217652;22;46913;-76
2023/10/30 08:02:57;;;;;;;;;3.00;3.00;;;;;16.18;95.41;99064.56;6245026;22;45426;-76
2023/10/30 08:05:23;;;;;;;;;5.33;5.00;;;;;16.24;95.61;99062.56;6221110;22;45253;-76
2023/10/30 08:11:10;;;;;;;;;5.75;5.00;;;;;16.35;95.26;99057.72;6244642;22;45407;-76
2023/10/30 08:13:36;;;;;;;;;3.00;3.00;;;;;16.34;93.48;99051.47;6244527;22;45443;-77
2023/10/30 08:16:01;;;;;;;;;0.00;0.00;;;;;16.31;92.15;99054.25;6246288;22;45431;-77
2023/10/30 08:18:27;;;;;;;;;2.50;2.00;;;;;16.30;92.59;99051.63;6248781;22;45276;-77
2023/10/30 08:20:53;;;;;;;;;2.00;2.00;;;;;16.31;93.29;99074.84;6216484;22;46975;-76
2023/10/30 08:23:20;;;;;;;;;4.00;3.00;;;;;16.29;93.26;99077.59;6244196;22;45315;-76
2023/10/30 08:25:46;;;;;;;;;3.00;3.00;;;;;16.31;93.10;99048.03;6215504;22;45570;-76
2023/10/30 08:28:12;;;;;;;;;3.00;3.00;;;;;16.24;93.24;99043.81;6215741;22;45509;-75
2023/10/30 08:30:37;;;;;;;;;0.50;0.50;;;;;16.11;91.53;99057.66;6215780;22;47066;-76
2023/10/30 08:34:00;;;;;;;;;0.50;0.50;;;;;16.24;90.23;99057.22;6245127;22;45312;-77
2023/10/30 08:36:26;;;;;;;;;1.50;0.50;;;;;16.02;89.78;99054.41;6231373;22;45360;-75
2023/10/30 08:38:51;;;;;;;;;1.00;1.00;;;;;16.05;88.90;99063.25;6243119;22;45366;-77
2023/10/30 08:41:17;;;;;;;;;1.00;1.00;;;;;16.01;89.47;99056.22;6242880;22;46895;-75
2023/10/30 08:43:44;;;;;;;;;0.75;0.75;;;;;15.98;89.72;99051.00;6238440;22;45399;-76
2023/10/30 08:46:59;;;;;;;;;0.50;0.00;;;;;16.18;89.82;99043.13;6242977;22;45410;-77
2023/10/30 08:49:25;;;;;;;;;1.25;1.00;;;;;15.94;89.76;99060.94;6215071;22;45383;-75
2023/10/30 08:51:51;;;;;;;;;1.00;1.00;;;;;15.92;89.66;99052.09;6215268;22;46109;-76
2023/10/30 08:54:23;;;;;;;;;2.00;1.50;;;;;16.18;89.68;99045.78;6215955;22;45475;-76
2023/10/30 08:56:48;;;;;;;;;1.00;1.00;;;;;15.96;89.65;99036.78;6216042;22;45794;-76
2023/10/30 08:59:14;;;;;;;;;1.00;1.00;;;;;15.94;89.50;99046.69;6216043;22;45386;-77
2023/10/30 09:01:40;;;;;;;;;3.00;1.00;;;;;15.84;90.03;99035.38;6242516;22;46492;-76
2023/10/30 09:04:06;;;;;;;;;1.50;1.50;;;;;15.76;90.52;99030.28;6243933;22;45496;-76
2023/10/30 09:06:32;;;;;;;;;0.00;0.00;;;;;15.87;90.65;99045.13;6244111;22;45332;-76
2023/10/30 09:08:57;;;;;;;;;3.50;2.00;;;;;15.87;90.77;99042.44;6244436;22;45489;-77
2023/10/30 09:11:23;;;;;;;;;3.50;1.25;;;;;15.88;91.21;99038.84;6244879;22;45343;-76
2023/10/30 09:13:49;;;;;;;;;1.00;1.00;;;;;15.90;91.00;99026.25;6216747;22;45407;-77
2023/10/30 09:16:14;;;;;;;;;4.00;2.50;;;;;15.89;91.31;99036.09;6218366;22;45233;-77
2023/10/30 09:18:47;;;;;;;;;2.00;2.00;;;;;15.92;91.76;99027.09;6245862;22;45359;-76
2023/10/30 09:21:13;;;;;;;;;3.50;3.25;;;;;15.91;91.75;99014.59;6244755;22;47211;-77
2023/10/30 09:23:43;;;;;;;;;3.75;2.00;;;;;16.14;92.05;99016.47;6217178;22;45312;-76
2023/10/30 09:26:10;;;;;;;;;2.75;2.75;;;;;15.94;92.35;99012.69;6216751;22;45715;-76
2023/10/30 09:28:36;;;;;;;;;5.50;4.25;;;;;15.94;93.13;99011.81;6215087;22;45387;-78
2023/10/30 09:31:02;;;;;;;;;5.00;4.00;;;;;15.98;93.32;99016.13;6217555;22;46816;-77
2023/10/30 09:33:27;;;;;;;;;3.25;3.25;;;;;15.97;93.70;99025.09;6243189;22;45335;-77
2023/10/30 09:35:52;;;;;;;;;3.75;3.25;;;;;16.02;94.00;99028.50;6218319;22;45354;-76
2023/10/30 09:38:21;;;;;;;;;8.00;5.00;;;;;16.22;94.82;99021.53;6243560;22;45345;-76
2023/10/30 09:41:11;;;;;;;;;4.50;3.25;;;;;16.23;94.81;99025.97;6242584;22;45056;-76
2023/10/30 09:43:44;;;;;;;;;4.75;4.75;;;;;16.10;95.05;99030.91;6213839;22;45770;-77
2023/10/30 09:47:15;;;;;;;;;3.75;3.00;;;;;16.44;94.41;99037.72;6245642;22;45252;-76
2023/10/30 09:49:50;;;;;;;;;6.75;6.75;;;;;16.37;95.38;99037.94;6245719;22;45487;-77
2023/10/30 09:52:18;;;;;;;;;5.50;5.50;;;;;16.17;95.49;99032.44;6244841;22;46581;-78
2023/10/30 09:54:45;;;;;;;;;3.75;3.75;;;;;16.20;95.79;99035.88;6244264;22;45391;-77
2023/10/30 09:57:12;;;;;;;;;5.00;5.00;;;;;16.38;96.23;99033.44;6241983;22;45324;-76
2023/10/30 09:59:38;;;;;;;;;8.33;8.33;;;;;16.34;95.93;99039.84;6214682;22;45300;-76
2023/10/30 10:02:03;;;;;;;;;5.00;5.00;;;;;16.32;95.93;99034.56;6214746;22;46060;-76
2023/10/30 10:04:29;;;;;;;;;8.67;8.33;;;;;16.30;96.28;99014.97;6242816;22;45276;-77
2023/10/30 10:06:59;;;;;;;;;8.00;6.67;;;;;16.49;96.66;99012.47;6242715;22;45320;-76
2023/10/30 10:09:26;;;;;;;;;8.00;7.00;;;;;16.34;96.86;98999.59;6213835;22;45761;-75
2023/10/30 10:11:52;;;;;;;;;7.25;7.25;;;;;16.40;96.58;99004.75;6244707;22;45757;-76
2023/10/30 10:14:20;;;;;;;;;8.50;6.25;;;;;16.55;96.49;99000.63;6242914;22;45347;-75
2023/10/30 10:16:45;;;;;;;;;5.75;5.75;;;;;16.41;96.35;99001.16;6220070;22;44820;-76
2023/10/30 10:19:22;;;;;;;;;5.33;5.33;;;;;16.59;95.94;99003.13;6217408;22;45210;-78
2023/10/30 10:21:49;;;;;;;;;9.00;9.00;;;;;16.41;97.01;98987.72;6245092;22;45499;-77
2023/10/30 10:24:27;;;;;;;;;9.25;8.50;;;;;16.65;97.46;98975.19;6245822;22;45468;-76
2023/10/30 10:26:52;;;;;;;;;11.33;11.33;;;;;16.50;98.06;98982.03;6218746;22;45352;-76
2023/10/30 10:29:23;;;;;;;;;9.00;8.25;;;;;16.64;98.39;98960.00;6216714;22;45348;-77
2023/10/30 10:31:50;;;;;;;;;17.00;12.33;;;;;16.71;98.40;98966.88;6245535;22;45557;-75
2023/10/30 10:34:15;;;;;;;;;12.50;11.25;;;;;16.60;98.08;98966.41;6243374;22;45448;-76
2023/10/30 10:36:41;;;;;;;;;11.00;11.00;;;;;16.62;97.29;98961.88;6216961;22;45488;-76
2023/10/30 10:39:07;;;;;;;;;9.75;9.75;;;;;16.65;97.30;98961.75;6218741;22;45362;-78
2023/10/30 10:41:33;;;;;;;;;10.00;9.50;;;;;16.64;96.62;98956.44;6220495;22;47400;-76
2023/10/30 10:44:03;;;;;;;;;11.00;11.00;;;;;16.66;97.35;98959.94;6243228;22;45419;-77
2023/10/30 10:46:28;;;;;;;;;8.25;8.25;;;;;16.67;97.99;98946.47;6218246;22;45443;-76
2023/10/30 10:48:53;;;;;;;;;12.75;12.75;;;;;16.71;97.71;98939.16;6244597;22;45292;-77
2023/10/30 10:51:37;;;;;;;;;12.25;10.25;;;;;16.95;97.23;98922.09;6220186;22;46301;-76
2023/10/30 10:54:11;;;;;;;;;13.00;12.67;;;;;16.94;97.16;98919.47;6221947;22;45767;-78
2023/10/30 10:56:38;;;;;;;;;10.25;10.25;;;;;16.84;96.53;98915.41;6220500;22;44756;-76
2023/10/30 10:59:56;;;;;;;;;12.67;12.67;;;;;17.09;96.13;98912.59;6247624;22;45396;-76
2023/10/30 11:02:30;;;;;;;;;10.25;10.25;;;;;17.08;96.96;98900.97;6222149;22;46596;-77
2023/10/30 11:04:58;;;;;;;;;10.33;10.33;;;;;17.07;96.57;98893.00;6220040;22;45495;-78
2023/10/30 11:07:51;;;;;;;;;13.33;13.00;;;;;17.20;95.99;98895.06;6218478;22;45281;-77
2023/10/30 11:10:33;;;;;;;;;10.67;9.00;;;;;17.28;95.12;98897.44;6246614;22;45398;-76
2023/10/30 11:13:13;;;;;;;;;17.00;15.00;;;;;17.21;95.65;98893.28;6245941;22;45357;-76
2023/10/30 11:15:47;;;;;;;;;17.00;17.00;;;;;17.23;96.00;98898.56;6244410;22;45335;-75
2023/10/30 11:18:14;;;;;;;;;18.33;17.33;;;;;17.08;95.68;98905.47;6217091;22;45304;-76
2023/10/30 11:20:46;;;;;;;;;17.33;14.67;;;;;17.26;95.54;98893.94;6245198;22;45636;-76
2023/10/30 11:23:12;;;;;;;;;19.33;19.00;;;;;17.16;95.78;98912.25;6247455;22;46872;-76
2023/10/30 11:25:45;;;;;;;;;19.00;16.67;;;;;17.18;95.92;98912.19;6248088;22;45261;-76
2023/10/30 11:28:10;;;;;;;;;17.00;17.00;;;;;17.28;95.92;98905.50;6247045;22;45447;-75
2023/10/30 11:30:43;;;;;;;;;16.67;16.33;;;;;17.53;95.19;98901.72;6221591;22;45307;-76
2023/10/30 11:33:26;;;;;;;;;18.00;18.00;;;;;17.53;93.91;98910.69;6222459;22;47785;-78
2023/10/30 11:36:14;;;;;;;;;17.33;16.67;;;;;17.49;93.96;98908.19;6251511;22;45364;-77
2023/10/30 11:38:57;;;;;;;;;16.33;14.33;;;;;17.46;94.91;98911.03;6247085;22;44867;-77